createdAt,value
2023-04-10T00:01:35.680Z,10.10
2023-04-10T00:04:03.610Z,10.10
2023-04-10T00:06:31.804Z,10.10
2023-04-10T00:08:59.360Z,10.00
2023-04-10T00:11:26.973Z,10.00
2023-04-10T00:13:54.634Z,9.90
2023-04-10T00:16:21.903Z,9.90
2023-04-10T00:18:48.961Z,9.90
2023-04-10T00:21:16.009Z,9.90
2023-04-10T00:23:43.800Z,9.80
2023-04-10T00:26:11.171Z,9.80
2023-04-10T00:28:38.620Z,9.80
2023-04-10T00:31:06.428Z,9.80
2023-04-10T00:33:33.468Z,9.70
2023-04-10T00:36:00.472Z,9.70
2023-04-10T00:38:27.670Z,9.70
2023-04-10T00:40:54.723Z,9.70
2023-04-10T00:43:22.452Z,9.70
2023-04-10T00:45:50.473Z,9.60
2023-04-10T00:48:18.349Z,9.60
2023-04-10T00:50:46.957Z,9.60
2023-04-10T00:53:15.882Z,9.60
2023-04-10T00:55:44.439Z,9.50
2023-04-10T00:58:14.700Z,9.50
2023-04-10T01:00:42.326Z,9.50
2023-04-10T01:03:11.356Z,9.50
2023-04-10T01:06:03.674Z,9.50
2023-04-10T01:09:01.161Z,9.40
2023-04-10T01:11:46.943Z,9.40
2023-04-10T01:14:19.020Z,9.30
2023-04-10T01:16:58.729Z,9.30
2023-04-10T01:19:46.684Z,9.30
2023-04-10T01:22:16.349Z,9.30
2023-04-10T01:24:46.636Z,9.30
2023-04-10T01:27:32.947Z,9.20
2023-04-10T01:30:02.657Z,9.20
2023-04-10T01:32:34.188Z,9.20
2023-04-10T01:35:06.722Z,9.10
2023-04-10T01:37:39.166Z,9.10
2023-04-10T01:40:10.491Z,9.10
2023-04-10T01:42:45.380Z,9.00
2023-04-10T01:45:18.518Z,9.00
2023-04-10T01:47:48.722Z,8.90
2023-04-10T01:50:16.884Z,8.90
2023-04-10T01:52:45.420Z,8.80
2023-04-10T01:55:39.807Z,8.80
2023-04-10T01:58:09.691Z,8.70
2023-04-10T02:00:41.870Z,8.80
2023-04-10T02:03:11.392Z,8.70
2023-04-10T02:06:05.359Z,8.70
2023-04-10T02:08:40.348Z,8.70
2023-04-10T02:11:35.850Z,8.70
2023-04-10T02:14:08.382Z,8.70
2023-04-10T02:16:38.301Z,8.60
2023-04-10T02:19:06.921Z,8.60
2023-04-10T02:21:35.150Z,8.50
2023-04-10T02:24:02.274Z,8.50
2023-04-10T02:26:30.460Z,8.50
2023-04-10T02:28:57.685Z,8.50
2023-04-10T02:31:25.129Z,8.50
2023-04-10T02:33:52.484Z,8.50
2023-04-10T02:36:19.653Z,8.50
2023-04-10T02:38:46.616Z,8.40
2023-04-10T02:41:13.898Z,8.40
2023-04-10T02:43:41.834Z,8.40
2023-04-10T02:46:08.916Z,8.40
2023-04-10T02:48:39.498Z,8.40
2023-04-10T02:51:07.621Z,8.40
2023-04-10T02:53:35.229Z,8.30
2023-04-10T02:56:02.604Z,8.30
2023-04-10T02:58:30.689Z,8.30
2023-04-10T03:00:58.550Z,8.30
2023-04-10T03:03:55.887Z,8.30
2023-04-10T03:06:30.376Z,8.20
2023-04-10T03:08:58.185Z,8.20
2023-04-10T03:11:27.293Z,8.20
2023-04-10T03:13:54.916Z,8.20
2023-04-10T03:16:22.786Z,8.10
2023-04-10T03:18:49.991Z,8.10
2023-04-10T03:21:17.343Z,8.10
2023-04-10T03:23:44.259Z,8.10
2023-04-10T03:26:12.581Z,8.10
2023-04-10T03:28:39.973Z,8.00
2023-04-10T03:31:10.760Z,8.00
2023-04-10T03:33:39.261Z,8.00
2023-04-10T03:36:09.014Z,8.00
2023-04-10T03:38:36.283Z,8.00
2023-04-10T03:41:05.639Z,7.90
2023-04-10T03:43:34.398Z,7.90
2023-04-10T03:46:03.640Z,7.90
2023-04-10T03:48:32.445Z,7.90
2023-04-10T03:50:59.566Z,7.90
2023-04-10T03:53:26.573Z,7.90
2023-04-10T03:55:54.672Z,7.80
2023-04-10T03:58:24.485Z,7.80
2023-04-10T04:00:53.191Z,7.80
2023-04-10T04:03:30.675Z,7.70
2023-04-10T04:06:00.885Z,7.70
2023-04-10T04:08:40.526Z,7.60
2023-04-10T04:11:21.252Z,7.60
2023-04-10T04:14:17.588Z,7.50
2023-04-10T04:17:00.636Z,7.50
2023-04-10T04:19:55.731Z,7.50
2023-04-10T04:22:46.410Z,7.50
2023-04-10T04:25:36.700Z,7.40
2023-04-10T04:28:33.741Z,7.40
2023-04-10T04:31:16.336Z,7.40
2023-04-10T04:34:01.946Z,7.40
2023-04-10T04:36:29.277Z,7.40
2023-04-10T04:39:13.511Z,7.40
2023-04-10T04:41:53.442Z,7.40
2023-04-10T04:44:49.408Z,7.40
2023-04-10T04:47:25.754Z,7.40
2023-04-10T04:50:17.509Z,7.40
2023-04-10T04:53:08.083Z,7.40
2023-04-10T04:56:13.669Z,7.40
2023-04-10T04:58:59.293Z,7.40
2023-04-10T05:01:38.091Z,7.40
2023-04-10T05:04:14.374Z,7.40
2023-04-10T05:06:56.854Z,7.50
2023-04-10T05:09:40.055Z,7.50
2023-04-10T05:12:20.385Z,7.50
2023-04-10T05:15:03.778Z,7.50
2023-04-10T05:17:51.259Z,7.50
2023-04-10T05:20:38.648Z,7.50
2023-04-10T05:23:20.517Z,7.50
2023-04-10T05:25:51.912Z,7.50
2023-04-10T05:28:41.733Z,7.60
2023-04-10T05:31:36.433Z,7.60
2023-04-10T05:34:17.150Z,7.70
2023-04-10T05:37:09.598Z,7.70
2023-04-10T05:39:47.591Z,7.80
2023-04-10T05:42:43.750Z,7.80
2023-04-10T05:45:46.196Z,7.90
2023-04-10T05:48:26.365Z,8.00
2023-04-10T05:51:16.337Z,8.10
2023-04-10T05:54:15.398Z,8.10
2023-04-10T05:57:08.620Z,8.20
2023-04-10T05:59:56.535Z,8.30
2023-04-10T06:02:43.856Z,8.40
2023-04-10T06:05:19.905Z,8.50
2023-04-10T06:07:47.256Z,8.60
2023-04-10T06:10:15.250Z,8.70
2023-04-10T06:12:42.233Z,8.80
2023-04-10T06:15:11.592Z,9.00
2023-04-10T06:17:44.511Z,9.10
2023-04-10T06:20:12.392Z,9.20
2023-04-10T06:22:40.870Z,9.40
2023-04-10T06:25:08.311Z,9.60
2023-04-10T06:27:36.019Z,9.70
2023-04-10T06:30:05.224Z,9.90
2023-04-10T06:32:32.864Z,10.10
2023-04-10T06:35:00.746Z,10.30
2023-04-10T06:37:32.854Z,10.50
2023-04-10T06:40:08.331Z,10.70
2023-04-10T06:42:37.460Z,11.00
2023-04-10T06:45:14.355Z,11.20
2023-04-10T06:47:41.438Z,11.60
2023-04-10T06:50:09.385Z,12.00
2023-04-10T06:52:36.984Z,12.40
2023-04-10T06:55:05.710Z,12.90
2023-04-10T06:57:32.675Z,13.40
2023-04-10T07:00:01.870Z,13.90
2023-04-10T07:02:29.056Z,14.40
2023-04-10T07:04:56.993Z,14.90
2023-04-10T07:07:24.455Z,15.30
2023-04-10T07:09:51.415Z,15.80
2023-04-10T07:12:18.420Z,16.20
2023-04-10T07:14:45.404Z,16.70
2023-04-10T07:17:12.378Z,17.10
2023-04-10T07:19:39.403Z,17.40
2023-04-10T07:22:07.386Z,17.80
2023-04-10T07:24:34.430Z,18.10
2023-04-10T07:27:02.468Z,18.40
2023-04-10T07:29:30.303Z,18.70
2023-04-10T07:31:57.400Z,19.00
2023-04-10T07:34:25.842Z,19.30
2023-04-10T07:36:53.245Z,19.60
2023-04-10T07:39:20.698Z,19.80
2023-04-10T07:41:48.933Z,20.00
2023-04-10T07:44:15.914Z,20.20
2023-04-10T07:46:43.822Z,20.50
2023-04-10T07:49:10.847Z,20.70
2023-04-10T07:51:38.794Z,20.90
2023-04-10T07:54:06.219Z,21.00
2023-04-10T07:56:33.130Z,21.10
2023-04-10T07:59:01.135Z,21.10
2023-04-10T08:01:31.311Z,21.20
2023-04-10T08:03:59.356Z,21.30
2023-04-10T08:06:27.886Z,21.40
2023-04-10T08:08:56.016Z,21.60
2023-04-10T08:11:31.470Z,21.70
2023-04-10T08:14:03.713Z,22.00
2023-04-10T08:16:34.425Z,22.10
2023-04-10T08:19:02.367Z,22.30
2023-04-10T08:21:31.884Z,22.50
2023-04-10T08:24:03.860Z,22.60
2023-04-10T08:26:30.974Z,22.80
2023-04-10T08:28:59.897Z,23.00
2023-04-10T08:31:28.734Z,23.20
2023-04-10T08:33:57.171Z,23.30
2023-04-10T08:36:26.725Z,23.50
2023-04-10T08:38:53.662Z,23.70
2023-04-10T08:41:21.544Z,23.90
2023-04-10T08:43:49.918Z,24.20
2023-04-10T08:46:18.149Z,24.30
2023-04-10T08:48:54.770Z,24.50
2023-04-10T08:51:28.997Z,24.60
2023-04-10T08:54:01.471Z,24.70
2023-04-10T08:56:31.428Z,24.80
2023-04-10T08:58:58.505Z,24.90
2023-04-10T09:01:25.797Z,25.00
2023-04-10T09:03:54.697Z,25.00
2023-04-10T09:06:21.973Z,25.10
2023-04-10T09:08:48.891Z,25.10
2023-04-10T09:11:15.960Z,25.10
2023-04-10T09:13:44.200Z,25.20
2023-04-10T09:16:12.058Z,25.20
2023-04-10T09:18:51.394Z,25.30
2023-04-10T09:21:22.193Z,25.30
2023-04-10T09:23:49.623Z,25.40
2023-04-10T09:26:33.807Z,25.40
2023-04-10T09:29:06.227Z,25.50
2023-04-10T09:31:40.364Z,25.60
2023-04-10T09:34:07.347Z,25.60
2023-04-10T09:36:34.868Z,25.70
2023-04-10T09:39:02.016Z,25.70
2023-04-10T09:41:29.214Z,25.80
2023-04-10T09:44:14.776Z,25.90
2023-04-10T09:46:42.190Z,25.90
2023-04-10T09:49:10.011Z,26.00
2023-04-10T09:51:39.562Z,25.90
2023-04-10T09:54:06.968Z,26.00
2023-04-10T09:56:40.264Z,25.90
2023-04-10T09:59:08.086Z,25.90
2023-04-10T10:01:37.860Z,25.90
2023-04-10T10:04:05.507Z,25.90
2023-04-10T10:06:33.562Z,25.90
2023-04-10T10:09:05.360Z,25.90
2023-04-10T10:11:36.297Z,25.90
2023-04-10T10:14:09.348Z,25.90
2023-04-10T10:16:43.868Z,25.90
2023-04-10T10:19:17.907Z,26.00
2023-04-10T10:21:45.900Z,26.00
2023-04-10T10:24:14.807Z,25.90
2023-04-10T10:26:44.206Z,25.90
2023-04-10T10:29:11.504Z,26.00
2023-04-10T10:31:38.860Z,26.00
2023-04-10T10:34:09.317Z,26.00
2023-04-10T10:36:37.675Z,25.90
2023-04-10T10:39:25.214Z,25.70
2023-04-10T10:42:31.989Z,25.40
2023-04-10T10:45:08.654Z,25.20
2023-04-10T10:47:45.529Z,25.00
2023-04-10T10:50:12.576Z,24.90
2023-04-10T10:52:52.943Z,24.80
2023-04-10T10:55:23.105Z,24.80
2023-04-10T10:58:00.739Z,24.70
2023-04-10T11:00:50.850Z,24.60
2023-04-10T11:03:18.053Z,24.50
2023-04-10T11:05:56.518Z,24.30
2023-04-10T11:08:37.051Z,24.20
2023-04-10T11:11:05.994Z,24.10
2023-04-10T11:14:03.107Z,24.00
2023-04-10T11:16:41.091Z,23.90
2023-04-10T11:19:16.264Z,23.90
2023-04-10T11:22:09.642Z,24.00
2023-04-10T11:25:03.572Z,24.00
2023-04-10T11:27:45.709Z,24.10
2023-04-10T11:30:31.874Z,24.00
2023-04-10T11:33:00.713Z,24.00
2023-04-10T11:35:28.915Z,23.90
2023-04-10T11:38:13.434Z,23.90
2023-04-10T11:41:02.367Z,23.90
2023-04-10T11:43:29.568Z,23.80
2023-04-10T11:46:08.866Z,23.70
2023-04-10T11:48:37.938Z,23.70
2023-04-10T11:51:09.532Z,23.60
2023-04-10T11:53:39.255Z,23.50
2023-04-10T11:56:09.355Z,23.40
2023-04-10T11:58:37.099Z,23.40
2023-04-10T12:01:05.901Z,23.30
2023-04-10T12:03:36.351Z,23.20
2023-04-10T12:06:04.917Z,23.20
2023-04-10T12:08:36.994Z,23.20
2023-04-10T12:11:04.187Z,23.20
2023-04-10T12:13:32.146Z,23.10
2023-04-10T12:16:01.690Z,23.10
2023-04-10T12:18:30.434Z,23.10
2023-04-10T12:20:59.449Z,23.10
2023-04-10T12:23:27.916Z,23.00
2023-04-10T12:26:15.333Z,23.00
2023-04-10T12:28:53.889Z,22.90
2023-04-10T12:31:47.574Z,22.80
2023-04-10T12:34:18.919Z,22.80
2023-04-10T12:36:53.358Z,22.70
2023-04-10T12:39:25.597Z,22.60
2023-04-10T12:41:52.909Z,22.60
2023-04-10T12:44:20.736Z,22.50
2023-04-10T12:46:50.996Z,22.50
2023-04-10T12:49:19.011Z,22.40
2023-04-10T12:51:52.949Z,22.40
2023-04-10T12:54:33.372Z,22.30
2023-04-10T12:57:04.683Z,22.20
2023-04-10T12:59:32.783Z,22.10
2023-04-10T13:01:59.940Z,21.90
2023-04-10T13:04:30.792Z,21.80
2023-04-10T13:06:57.804Z,21.70
2023-04-10T13:09:27.959Z,21.60
2023-04-10T13:11:57.779Z,21.60
2023-04-10T13:14:27.936Z,21.50
2023-04-10T13:16:57.710Z,21.50
2023-04-10T13:19:24.677Z,21.50
2023-04-10T13:21:52.064Z,21.40
2023-04-10T13:24:19.038Z,21.40
2023-04-10T13:26:46.153Z,21.40
2023-04-10T13:29:13.926Z,21.40
2023-04-10T13:31:41.144Z,21.40
2023-04-10T13:34:08.278Z,21.40
2023-04-10T13:36:37.855Z,21.50
2023-04-10T13:39:04.919Z,21.50
2023-04-10T13:41:32.001Z,21.50
2023-04-10T13:43:58.992Z,21.60
2023-04-10T13:46:26.272Z,21.60
2023-04-10T13:48:55.587Z,21.60
2023-04-10T13:51:22.939Z,21.60
2023-04-10T13:53:50.998Z,21.60
2023-04-10T13:56:18.062Z,21.60
2023-04-10T13:58:46.494Z,21.60
2023-04-10T14:01:13.512Z,21.60
2023-04-10T14:03:40.871Z,21.50
2023-04-10T14:06:08.046Z,21.50
2023-04-10T14:08:35.082Z,21.50
2023-04-10T14:11:02.065Z,21.50
2023-04-10T14:13:30.470Z,21.50
2023-04-10T14:15:57.651Z,21.60
2023-04-10T14:18:24.590Z,21.60
2023-04-10T14:20:51.484Z,21.60
2023-04-10T14:23:18.704Z,21.60
2023-04-10T14:25:46.437Z,21.50
2023-04-10T14:28:25.635Z,21.50
2023-04-10T14:30:52.939Z,21.50
2023-04-10T14:33:20.803Z,21.40
2023-04-10T14:35:48.502Z,21.30
2023-04-10T14:38:17.179Z,21.20
2023-04-10T14:40:48.575Z,21.20
2023-04-10T14:43:16.379Z,21.10
2023-04-10T14:45:43.840Z,21.10
2023-04-10T14:48:13.538Z,21.00
2023-04-10T14:50:41.052Z,21.00
2023-04-10T14:53:10.053Z,20.90
2023-04-10T14:55:37.779Z,20.80
2023-04-10T14:58:07.583Z,20.80
2023-04-10T15:00:35.602Z,20.70
2023-04-10T15:03:05.420Z,20.70
2023-04-10T15:05:33.020Z,20.70
2023-04-10T15:08:00.317Z,20.60
2023-04-10T15:10:30.758Z,20.60
2023-04-10T15:12:57.806Z,20.60
2023-04-10T15:15:24.965Z,20.50
2023-04-10T15:17:53.311Z,20.40
2023-04-10T15:20:20.518Z,20.40
2023-04-10T15:22:48.451Z,20.30
2023-04-10T15:25:16.020Z,20.30
2023-04-10T15:27:44.975Z,20.30
2023-04-10T15:30:12.612Z,20.20
2023-04-10T15:32:39.898Z,20.10
2023-04-10T15:35:07.528Z,20.10
2023-04-10T15:37:37.571Z,20.10
2023-04-10T15:40:06.459Z,20.00
2023-04-10T15:42:34.700Z,20.00
2023-04-10T15:45:01.848Z,20.00
2023-04-10T15:47:28.992Z,19.90
2023-04-10T15:49:57.401Z,19.90
2023-04-10T15:52:24.404Z,19.90
2023-04-10T15:54:53.013Z,19.80
2023-04-10T15:57:20.886Z,19.80
2023-04-10T15:59:51.265Z,19.70
2023-04-10T16:02:18.247Z,19.60
2023-04-10T16:04:45.374Z,19.60
2023-04-10T16:07:12.349Z,19.50
2023-04-10T16:09:41.504Z,19.50
2023-04-10T16:12:08.649Z,19.50
2023-04-10T16:14:36.425Z,19.50
2023-04-10T16:17:03.460Z,19.40
2023-04-10T16:19:31.557Z,19.40
2023-04-10T16:21:58.504Z,19.40
2023-04-10T16:24:25.839Z,19.30
2023-04-10T16:26:54.229Z,19.30
2023-04-10T16:29:21.402Z,19.30
2023-04-10T16:31:48.657Z,19.30
2023-04-10T16:34:15.829Z,19.20
2023-04-10T16:36:42.991Z,19.20
2023-04-10T16:39:10.058Z,19.20
2023-04-10T16:41:37.290Z,19.20
2023-04-10T16:44:04.283Z,19.20
2023-04-10T16:46:33.657Z,19.10
2023-04-10T16:49:01.632Z,19.10
2023-04-10T16:51:31.322Z,19.10
2023-04-10T16:53:58.324Z,19.00
2023-04-10T16:56:25.635Z,19.00
2023-04-10T16:58:53.076Z,19.00
2023-04-10T17:01:26.083Z,19.00
2023-04-10T17:03:54.328Z,18.90
2023-04-10T17:06:22.915Z,18.90
2023-04-10T17:08:51.633Z,18.80
2023-04-10T17:11:18.704Z,18.80
2023-04-10T17:13:46.130Z,18.80
2023-04-10T17:16:13.210Z,18.70
2023-04-10T17:18:40.950Z,18.70
2023-04-10T17:21:13.645Z,18.70
2023-04-10T17:23:40.965Z,18.60
2023-04-10T17:26:16.147Z,18.60
2023-04-10T17:28:45.434Z,18.50
2023-04-10T17:31:14.269Z,18.50
2023-04-10T17:33:44.727Z,18.50
2023-04-10T17:36:12.969Z,18.50
2023-04-10T17:38:41.445Z,18.40
2023-04-10T17:41:09.735Z,18.40
2023-04-10T17:43:40.824Z,18.40
2023-04-10T17:46:07.943Z,18.30
2023-04-10T17:48:40.037Z,18.30
2023-04-10T17:51:07.906Z,18.20
2023-04-10T17:53:34.976Z,18.10
2023-04-10T17:56:05.504Z,18.10
2023-04-10T17:58:32.749Z,18.10
2023-04-10T18:01:00.605Z,18.00
2023-04-10T18:03:27.989Z,17.90
2023-04-10T18:05:56.149Z,17.90
2023-04-10T18:08:23.204Z,17.80
2023-04-10T18:10:50.177Z,17.80
2023-04-10T18:13:17.163Z,17.70
2023-04-10T18:15:44.176Z,17.60
2023-04-10T18:18:11.321Z,17.60
2023-04-10T18:20:38.416Z,17.60
2023-04-10T18:23:06.565Z,17.50
2023-04-10T18:25:33.642Z,17.50
2023-04-10T18:30:30.742Z,17.40
2023-04-10T18:32:57.865Z,17.40
2023-04-10T18:35:24.919Z,17.30
2023-04-10T18:37:52.145Z,17.30
2023-04-10T18:40:19.611Z,17.20
2023-04-10T18:42:46.631Z,17.20
2023-04-10T18:45:13.616Z,17.10
2023-04-10T18:47:40.780Z,17.10
2023-04-10T18:50:12.491Z,17.00
2023-04-10T18:52:40.221Z,17.00
2023-04-10T18:55:08.734Z,16.90
2023-04-10T18:57:37.529Z,16.90
2023-04-10T19:00:08.250Z,16.90
2023-04-10T19:02:35.686Z,16.80
2023-04-10T19:05:03.879Z,16.80
2023-04-10T19:07:34.939Z,16.80
2023-04-10T19:10:02.665Z,16.70
2023-04-10T19:12:29.956Z,16.70
2023-04-10T19:14:56.898Z,16.70
2023-04-10T19:17:25.019Z,16.70
2023-04-10T19:19:53.331Z,16.60
2023-04-10T19:22:21.730Z,16.60
2023-04-10T19:24:50.689Z,16.60
2023-04-10T19:27:17.946Z,16.50
2023-04-10T19:29:45.068Z,16.50
2023-04-10T19:32:12.140Z,16.50
2023-04-10T19:34:39.113Z,16.40
2023-04-10T19:37:06.142Z,16.40
2023-04-10T19:39:34.456Z,16.40
2023-04-10T19:42:03.351Z,16.30
2023-04-10T19:44:30.928Z,16.30
2023-04-10T19:46:57.935Z,16.20
2023-04-10T19:49:26.227Z,16.20
2023-04-10T19:51:55.026Z,16.20
2023-04-10T19:54:22.878Z,16.10
2023-04-10T19:56:50.213Z,16.10
2023-04-10T19:59:17.596Z,16.00
2023-04-10T20:01:44.710Z,16.00
2023-04-10T20:04:12.033Z,16.00
2023-04-10T20:06:39.362Z,15.90
2023-04-10T20:09:07.402Z,15.90
2023-04-10T20:11:35.187Z,15.80
2023-04-10T20:14:02.221Z,15.80
2023-04-10T20:16:29.167Z,15.80
2023-04-10T20:18:56.510Z,15.70
2023-04-10T20:21:24.073Z,15.70
2023-04-10T20:23:51.072Z,15.70
2023-04-10T20:26:17.990Z,15.60
2023-04-10T20:28:45.212Z,15.60
2023-04-10T20:31:13.203Z,15.60
2023-04-10T20:33:40.947Z,15.60
2023-04-10T20:36:08.438Z,15.60
2023-04-10T20:38:35.417Z,15.50
2023-04-10T20:41:03.669Z,15.50
2023-04-10T20:43:34.113Z,15.50
2023-04-10T20:46:05.354Z,15.40
2023-04-10T20:48:32.537Z,15.40
2023-04-10T20:50:59.579Z,15.40
2023-04-10T20:53:29.418Z,15.40
2023-04-10T20:55:57.468Z,15.30
2023-04-10T20:58:24.458Z,15.30
2023-04-10T21:00:52.921Z,15.30
2023-04-10T21:03:20.683Z,15.20
2023-04-10T21:05:52.113Z,15.20
2023-04-10T21:08:20.653Z,15.20
2023-04-10T21:10:49.614Z,15.20
2023-04-10T21:13:16.871Z,15.20
2023-04-10T21:15:46.392Z,15.20
2023-04-10T21:18:14.491Z,15.20
2023-04-10T21:20:43.395Z,15.10
2023-04-10T21:23:10.402Z,15.10
2023-04-10T21:25:39.205Z,15.10
2023-04-10T21:28:06.269Z,15.10
2023-04-10T21:30:33.334Z,15.10
2023-04-10T21:33:00.256Z,15.00
2023-04-10T21:35:27.384Z,15.00
2023-04-10T21:37:57.673Z,15.00
2023-04-10T21:40:26.235Z,15.00
2023-04-10T21:42:56.637Z,14.90
2023-04-10T21:45:24.268Z,14.90
2023-04-10T21:47:54.081Z,14.90
2023-04-10T21:50:21.628Z,14.80
2023-04-10T21:52:48.704Z,14.80
2023-04-10T21:55:15.859Z,14.80
2023-04-10T21:57:43.014Z,14.70
2023-04-10T22:00:10.365Z,14.70
2023-04-10T22:02:37.517Z,14.70
2023-04-10T22:05:13.242Z,14.60
2023-04-10T22:07:41.204Z,14.60
2023-04-10T22:10:08.770Z,14.60
2023-04-10T22:12:36.003Z,14.60
2023-04-10T22:15:03.853Z,14.50
2023-04-10T22:17:30.779Z,14.50
2023-04-10T22:19:57.735Z,14.50
2023-04-10T22:22:24.741Z,14.50
2023-04-10T22:24:51.786Z,14.40
2023-04-10T22:27:18.814Z,14.40
2023-04-10T22:29:56.265Z,14.30
2023-04-10T22:32:29.810Z,14.30
2023-04-10T22:34:58.964Z,14.20
2023-04-10T22:37:26.679Z,14.20
2023-04-10T22:39:56.217Z,14.20
2023-04-10T22:42:23.909Z,14.20
2023-04-10T22:44:51.103Z,14.10
2023-04-10T22:47:18.202Z,14.10
2023-04-10T22:49:45.342Z,14.10
2023-04-10T22:52:13.275Z,14.10
2023-04-10T22:54:43.032Z,14.10
2023-04-10T22:57:10.522Z,14.10
2023-04-10T22:59:38.018Z,14.00
2023-04-10T23:02:05.298Z,14.00
2023-04-10T23:04:32.662Z,14.10
2023-04-10T23:06:59.668Z,14.00
2023-04-10T23:09:26.687Z,14.00
2023-04-10T23:11:53.677Z,14.00
2023-04-10T23:14:20.777Z,14.00
2023-04-10T23:16:47.994Z,14.00
2023-04-10T23:19:15.501Z,14.00
2023-04-10T23:21:42.575Z,14.00
2023-04-10T23:24:09.500Z,14.00
2023-04-10T23:26:36.448Z,14.00
2023-04-10T23:29:03.455Z,14.00
2023-04-10T23:31:30.535Z,14.00
2023-04-10T23:33:58.824Z,14.00
2023-04-10T23:36:25.752Z,14.00
2023-04-10T23:38:53.289Z,14.00
2023-04-10T23:41:21.528Z,14.00
2023-04-10T23:43:48.554Z,14.00
2023-04-10T23:46:15.523Z,14.00
2023-04-10T23:48:42.649Z,13.90
2023-04-10T23:51:09.701Z,13.90
2023-04-10T23:53:36.705Z,13.90
2023-04-10T23:56:03.732Z,13.90
2023-04-10T23:58:32.177Z,13.90
